Time,TemperatureF,DewpointF,PressureIn,WindDirection,WindDirectionDegrees,WindSpeedMPH,WindSpeedGustMPH,Humidity,HourlyPrecipIn,Conditions,Clouds,dailyrainin,SoftwareType,DateUTC
2013-06-25 00:00:00,71.2,66.8,29.89,WSW,256,0.0,0.0,86,0.00,,,0.14,Wunderground v.1.15,2013-06-25 04:00:00,
2013-06-25 00:30:00,71.3,66.9,29.89,West,281,0.0,0.0,86,0.00,,,0.00,Wunderground v.1.15,2013-06-25 04:30:00,
2013-06-25 01:00:00,71.2,66.8,29.89,West,274,0.0,0.0,86,0.00,,,0.00,Wunderground v.1.15,2013-06-25 05:00:00,
2013-06-25 01:30:00,70.9,66.5,29.89,West,260,0.0,1.0,86,0.00,,,0.00,Wunderground v.1.15,2013-06-25 05:30:00,
2013-06-25 02:00:00,70.7,66.3,29.89,WSW,257,0.0,0.0,86,0.00,,,0.00,Wunderground v.1.15,2013-06-25 06:00:00,
2013-06-25 02:30:00,70.8,66.1,29.88,WSW,249,1.0,1.0,85,0.00,,,0.00,Wunderground v.1.15,2013-06-25 06:30:00,
2013-06-25 03:00:00,70.0,65.6,29.88,West,274,0.0,0.0,86,0.00,,,0.00,Wunderground v.1.15,2013-06-25 07:00:00,
2013-06-25 03:30:00,69.7,65.3,29.86,East,94,0.0,0.0,86,0.00,,,0.00,Wunderground v.1.15,2013-06-25 07:30:00,
2013-06-25 04:00:00,69.8,65.1,29.87,WSW,253,0.0,0.0,85,0.00,,,0.00,Wunderground v.1.15,2013-06-25 08:00:00,
2013-06-25 04:30:00,69.9,65.2,29.88,West,278,1.0,1.0,85,0.00,,,0.00,Wunderground v.1.15,2013-06-25 08:30:00,
2013-06-25 05:00:00,69.8,65.1,29.88,West,281,0.0,0.0,85,0.00,,,0.00,Wunderground v.1.15,2013-06-25 09:00:00,
2013-06-25 05:30:00,69.7,65.0,29.88,West,274,0.0,0.0,85,0.00,,,0.00,Wunderground v.1.15,2013-06-25 09:30:00,
2013-06-25 06:00:00,70.2,65.1,29.88,West,274,0.0,0.0,84,0.00,,,0.00,Wunderground v.1.15,2013-06-25 10:00:00,
2013-06-25 06:30:00,70.9,65.1,29.88,WSW,258,1.0,1.0,82,0.00,,,0.00,Wunderground v.1.15,2013-06-25 10:30:00,
2013-06-25 07:00:00,71.2,65.8,29.87,WSW,258,0.0,2.0,83,0.00,,,0.00,Wunderground v.1.15,2013-06-25 11:00:00,
2013-06-25 07:30:00,72.8,66.6,29.87,West,264,0.0,2.0,81,0.00,,,0.00,Wunderground v.1.15,2013-06-25 11:30:00,
2013-06-25 08:00:00,75.6,67.1,29.86,West,263,1.0,1.0,75,0.00,,,0.00,Wunderground v.1.15,2013-06-25 12:00:00,
2013-06-25 08:30:00,78.7,68.1,29.87,SW,221,1.0,1.0,70,0.00,,,0.00,Wunderground v.1.15,2013-06-25 12:30:00,
2013-06-25 09:00:00,80.5,69.4,29.86,West,271,1.0,1.0,69,0.00,,,0.00,Wunderground v.1.15,2013-06-25 13:00:00,
2013-06-25 09:30:00,82.8,68.9,29.85,SW,226,2.0,2.0,63,0.00,,,0.00,Wunderground v.1.15,2013-06-25 13:30:00,
2013-06-25 10:00:00,84.1,69.7,29.84,WSW,253,2.0,2.0,62,0.00,,,0.00,Wunderground v.1.15,2013-06-25 14:00:00,
2013-06-25 10:30:00,86.0,69.0,29.85,SW,233,2.0,6.0,57,0.00,,,0.00,Wunderground v.1.15,2013-06-25 14:30:00,
2013-06-25 11:00:00,87.0,69.4,29.85,WSW,242,3.0,5.0,56,0.00,,,0.00,Wunderground v.1.15,2013-06-25 15:00:00,
2013-06-25 11:30:00,88.2,71.0,29.85,SW,223,3.0,3.0,57,0.00,,,0.00,Wunderground v.1.15,2013-06-25 15:30:00,
2013-06-25 12:00:00,89.2,70.4,29.85,West,271,3.0,3.0,54,0.00,,,0.00,Wunderground v.1.15,2013-06-25 16:00:00,
2013-06-25 12:30:00,89.8,71.5,29.84,West,260,4.0,6.0,55,0.00,,,0.00,Wunderground v.1.15,2013-06-25 16:30:00,
2013-06-25 13:00:00,90.8,71.3,29.83,West,262,4.0,4.0,53,0.00,,,0.00,Wunderground v.1.15,2013-06-25 17:00:00,
2013-06-25 13:30:00,92.0,71.9,29.82,West,277,2.0,5.0,52,0.00,,,0.00,Wunderground v.1.15,2013-06-25 17:30:00,
2013-06-25 14:00:00,92.5,71.7,29.80,West,280,2.0,6.0,51,0.00,,,0.00,Wunderground v.1.15,2013-06-25 18:00:00,
2013-06-25 14:30:00,93.3,70.7,29.78,West,278,2.0,3.0,48,0.00,,,0.00,Wunderground v.1.15,2013-06-25 18:30:00,
2013-06-25 15:00:00,93.4,68.9,29.77,West,266,2.0,2.0,45,0.00,,,0.00,Wunderground v.1.15,2013-06-25 19:00:00,
2013-06-25 15:30:00,93.6,69.1,29.76,WSW,252,3.0,3.0,45,0.00,,,0.00,Wunderground v.1.15,2013-06-25 19:30:00,
2013-06-25 16:00:00,94.9,69.6,29.75,WNW,302,2.0,2.0,44,0.00,,,0.00,Wunderground v.1.15,2013-06-25 20:00:00,
2013-06-25 16:30:00,94.7,71.3,29.73,SE,145,1.0,2.0,47,0.00,,,0.00,Wunderground v.1.15,2013-06-25 20:30:00,
2013-06-25 17:00:00,94.7,70.7,29.73,West,262,1.0,1.0,46,0.00,,,0.00,Wunderground v.1.15,2013-06-25 21:00:00,
2013-06-25 17:30:00,92.1,69.6,29.74,SW,223,2.0,2.0,48,0.00,,,0.00,Wunderground v.1.15,2013-06-25 21:30:00,
2013-06-25 18:00:00,91.8,71.1,29.72,South,169,1.0,1.0,51,0.00,,,0.00,Wunderground v.1.15,2013-06-25 22:00:00,
2013-06-25 18:30:00,90.2,70.2,29.71,East,96,1.0,1.0,52,0.00,,,0.00,Wunderground v.1.15,2013-06-25 22:30:00,
2013-06-25 19:00:00,87.6,71.0,29.71,NE,56,0.0,1.0,58,0.00,,,0.00,Wunderground v.1.15,2013-06-25 23:00:00,
2013-06-25 19:30:00,86.5,71.5,29.70,ESE,102,0.0,1.0,61,0.00,,,0.00,Wunderground v.1.15,2013-06-25 23:30:00,
2013-06-25 20:00:00,85.3,71.3,29.70,ESE,109,0.0,0.0,63,0.00,,,0.00,Wunderground v.1.15,2013-06-26 00:00:00,
2013-06-25 20:30:00,83.8,70.3,29.70,SW,228,0.0,1.0,64,0.00,,,0.00,Wunderground v.1.15,2013-06-26 00:30:00,
2013-06-25 21:00:00,83.0,69.1,29.71,West,267,2.0,5.0,63,0.00,,,0.00,Wunderground v.1.15,2013-06-26 01:00:00,
2013-06-25 21:30:00,80.6,68.2,29.72,West,264,1.0,1.0,66,0.00,,,0.00,Wunderground v.1.15,2013-06-26 01:30:00,
2013-06-25 22:00:00,79.6,68.1,29.72,NW,308,1.0,1.0,68,0.00,,,0.00,Wunderground v.1.15,2013-06-26 02:00:00,
2013-06-25 22:30:00,78.6,68.4,29.72,West,267,1.0,1.0,71,0.00,,,0.00,Wunderground v.1.15,2013-06-26 02:30:00,
2013-06-25 23:00:00,78.0,70.2,29.73,West,263,1.0,2.0,77,0.00,,,0.00,Wunderground v.1.15,2013-06-26 03:00:00,
2013-06-25 23:30:00,77.0,69.2,29.73,WSW,245,0.0,0.0,77,0.00,,,0.00,Wunderground v.1.15,2013-06-26 03:30:00,